createdAt,value
2019-05-29T00:03:37.286Z,16.17
2019-05-29T00:08:43.227Z,14.73
2019-05-29T00:13:48.487Z,15.43
2019-05-29T00:18:53.732Z,15.55
2019-05-29T00:23:58.980Z,15.70
2019-05-29T00:29:05.541Z,14.68
2019-05-29T00:34:11.110Z,16.23
2019-05-29T00:39:17.037Z,14.38
2019-05-29T00:44:33.872Z,12.43
2019-05-29T00:49:29.449Z,12.47
2019-05-29T00:54:35.000Z,12.78
2019-05-29T00:59:41.901Z,11.22
2019-05-29T01:04:47.113Z,11.05
2019-05-29T01:09:52.652Z,9.40
2019-05-29T01:14:58.933Z,8.90
2019-05-29T01:20:05.412Z,8.88
2019-05-29T01:25:12.413Z,8.50
2019-05-29T01:30:18.999Z,8.80
2019-05-29T01:35:25.201Z,8.83
2019-05-29T01:40:30.479Z,7.22
2019-05-29T01:45:35.733Z,7.55
2019-05-29T01:50:41.346Z,7.03
2019-05-29T01:55:46.946Z,5.92
2019-05-29T02:00:52.276Z,6.87
2019-05-29T02:05:58.447Z,5.70
2019-05-29T02:11:03.808Z,6.30
2019-05-29T02:16:09.040Z,5.17
2019-05-29T02:21:14.197Z,5.70
2019-05-29T02:26:20.384Z,5.53
2019-05-29T02:31:27.087Z,5.58
2019-05-29T02:36:32.734Z,6.30
2019-05-29T02:41:37.987Z,6.58
2019-05-29T02:46:43.248Z,5.90
2019-05-29T02:51:53.907Z,6.27
2019-05-29T02:56:59.171Z,7.00
2019-05-29T03:02:04.392Z,7.22
2019-05-29T03:07:09.632Z,7.33
2019-05-29T03:12:14.838Z,7.60
2019-05-29T03:17:20.366Z,7.12
2019-05-29T03:22:26.268Z,7.50
2019-05-29T03:27:32.038Z,7.85
2019-05-29T03:32:46.672Z,6.40
2019-05-29T03:37:44.421Z,6.37
2019-05-29T03:42:49.673Z,6.33
2019-05-29T03:47:54.975Z,7.10
2019-05-29T03:53:00.227Z,6.78
2019-05-29T03:58:05.489Z,6.58
2019-05-29T04:03:10.769Z,6.90
2019-05-29T04:08:16.050Z,6.58
2019-05-29T04:13:21.298Z,6.20
2019-05-29T04:18:27.709Z,6.20
2019-05-29T04:23:36.827Z,7.47
2019-05-29T04:28:44.626Z,8.83
2019-05-29T04:33:50.176Z,10.27
2019-05-29T04:38:55.788Z,11.15
2019-05-29T04:44:01.052Z,12.00
2019-05-29T04:49:06.330Z,11.28
2019-05-29T04:54:11.591Z,9.78
2019-05-29T04:59:16.850Z,9.13
2019-05-29T05:04:22.100Z,8.33
2019-05-29T05:09:27.377Z,8.43
2019-05-29T05:14:33.627Z,7.65
2019-05-29T05:19:40.061Z,6.80
2019-05-29T05:24:45.756Z,5.40
2019-05-29T05:29:51.357Z,5.67
2019-05-29T05:34:57.679Z,6.08
2019-05-29T05:40:02.883Z,5.43
2019-05-29T05:45:08.292Z,4.77
2019-05-29T05:50:13.940Z,4.60
2019-05-29T05:55:19.196Z,4.43
2019-05-29T06:00:32.112Z,4.37
2019-05-29T06:05:38.226Z,3.90
2019-05-29T06:10:43.502Z,4.20
2019-05-29T06:15:48.849Z,4.40
2019-05-29T06:20:55.007Z,4.00
2019-05-29T06:26:00.889Z,4.23
2019-05-29T06:31:06.056Z,3.83
2019-05-29T06:36:11.299Z,3.93
2019-05-29T06:41:16.723Z,3.63
2019-05-29T06:46:21.909Z,3.90
2019-05-29T06:51:27.077Z,4.10
2019-05-29T06:56:32.248Z,4.40
2019-05-29T07:01:37.477Z,4.10
2019-05-29T07:06:42.792Z,4.10
2019-05-29T07:11:48.745Z,4.17
2019-05-29T07:16:56.171Z,4.50
2019-05-29T07:22:01.218Z,3.77
2019-05-29T07:27:06.399Z,3.80
2019-05-29T07:32:12.337Z,4.00
2019-05-29T07:37:18.655Z,4.40
2019-05-29T07:42:23.859Z,3.57
2019-05-29T07:47:29.127Z,3.15
2019-05-29T07:52:34.332Z,3.10
2019-05-29T07:57:40.876Z,2.98
2019-05-29T08:02:47.512Z,3.55
2019-05-29T08:07:53.023Z,3.30
2019-05-29T08:12:58.272Z,3.47
2019-05-29T08:18:03.521Z,3.70
2019-05-29T08:23:08.867Z,3.37
2019-05-29T08:28:14.129Z,3.20
2019-05-29T08:33:19.382Z,2.95
2019-05-29T08:38:25.591Z,3.03
2019-05-29T08:43:30.840Z,3.10
2019-05-29T08:48:36.086Z,3.40
2019-05-29T08:53:42.553Z,2.90
2019-05-29T08:58:48.378Z,2.73
2019-05-29T09:03:53.883Z,2.90
2019-05-29T09:08:59.238Z,2.98
2019-05-29T09:14:05.145Z,3.25
2019-05-29T09:19:12.042Z,3.15
2019-05-29T09:24:18.079Z,3.20
2019-05-29T09:29:25.040Z,2.92
2019-05-29T09:34:30.434Z,3.33
2019-05-29T09:39:35.678Z,2.95
2019-05-29T09:44:40.942Z,2.62
2019-05-29T09:49:47.499Z,3.15
2019-05-29T09:54:53.584Z,3.17
2019-05-29T10:00:02.033Z,3.67
2019-05-29T10:05:08.168Z,3.22
2019-05-29T10:10:14.758Z,2.92
2019-05-29T10:15:20.510Z,3.15
2019-05-29T10:20:26.223Z,2.67
2019-05-29T10:25:31.773Z,2.60
2019-05-29T10:30:37.041Z,2.40
2019-05-29T10:35:42.703Z,2.50
2019-05-29T10:41:04.598Z,2.90
2019-05-29T10:45:55.362Z,2.80
2019-05-29T10:51:01.241Z,2.27
2019-05-29T10:56:06.614Z,2.12
2019-05-29T11:01:11.898Z,2.90
2019-05-29T11:06:17.216Z,1.92
2019-05-29T11:11:22.833Z,1.90
2019-05-29T11:16:28.099Z,1.55
2019-05-29T11:21:33.365Z,1.70
2019-05-29T11:26:38.639Z,1.70
2019-05-29T11:31:43.908Z,1.87
2019-05-29T11:36:49.979Z,1.90
2019-05-29T11:41:55.327Z,2.27
2019-05-29T11:47:00.604Z,2.10
2019-05-29T11:52:23.210Z,2.10
2019-05-29T11:57:13.360Z,2.40
2019-05-29T12:02:18.622Z,1.85
2019-05-29T12:07:23.914Z,1.60
2019-05-29T12:12:29.175Z,1.75
2019-05-29T12:17:35.784Z,1.90
2019-05-29T12:22:41.147Z,2.00
2019-05-29T12:27:46.406Z,1.92
2019-05-29T12:32:52.755Z,1.72
2019-05-29T12:37:59.359Z,1.67
2019-05-29T12:43:04.773Z,1.80
2019-05-29T12:48:13.585Z,2.22
2019-05-29T12:53:29.744Z,1.92
2019-05-29T12:58:23.962Z,1.77
2019-05-29T13:03:29.236Z,1.80
2019-05-29T13:08:34.499Z,2.00
2019-05-29T13:13:40.247Z,1.70
2019-05-29T13:18:45.896Z,1.50
2019-05-29T13:23:59.747Z,1.52
2019-05-29T13:29:04.224Z,1.40
2019-05-29T13:34:09.623Z,1.50
2019-05-29T13:39:15.280Z,1.30
2019-05-29T13:44:21.088Z,1.25
2019-05-29T13:49:26.340Z,1.20
2019-05-29T13:54:31.597Z,1.50
2019-05-29T13:59:36.861Z,1.40
2019-05-29T14:04:42.127Z,1.10
2019-05-29T14:09:47.783Z,1.45
2019-05-29T14:14:53.054Z,1.00
2019-05-29T14:19:58.656Z,1.07
2019-05-29T14:25:05.272Z,1.00
2019-05-29T14:30:11.309Z,1.15
2019-05-29T14:35:17.937Z,1.10
2019-05-29T14:40:23.206Z,1.20
2019-05-29T14:45:28.498Z,1.30
2019-05-29T14:50:33.773Z,1.22
2019-05-29T14:55:39.028Z,1.20
2019-05-29T15:00:44.336Z,1.07
2019-05-29T15:05:49.598Z,1.15
2019-05-29T15:10:54.854Z,1.10
2019-05-29T15:16:00.108Z,1.00
2019-05-29T15:21:05.357Z,1.17
2019-05-29T15:26:11.683Z,1.10
2019-05-29T15:31:17.593Z,1.10
2019-05-29T15:36:24.515Z,0.80
2019-05-29T15:41:30.002Z,1.00
2019-05-29T15:46:35.358Z,1.30
2019-05-29T15:51:40.615Z,1.30
2019-05-29T15:56:46.072Z,1.17
2019-05-29T16:01:51.333Z,1.05
2019-05-29T16:06:56.586Z,1.25
2019-05-29T16:12:01.913Z,1.40
2019-05-29T16:17:07.177Z,1.50
2019-05-29T16:22:12.437Z,1.47
2019-05-29T16:27:18.184Z,1.20
2019-05-29T16:32:23.585Z,1.10
2019-05-29T16:37:28.879Z,1.10
2019-05-29T16:42:34.139Z,0.98
2019-05-29T16:47:39.461Z,0.85
2019-05-29T16:52:45.062Z,0.90
2019-05-29T16:57:50.324Z,0.82
2019-05-29T17:02:55.586Z,1.00
2019-05-29T17:08:00.906Z,0.90
2019-05-29T17:13:07.103Z,0.85
2019-05-29T17:18:12.363Z,1.00
2019-05-29T17:23:18.862Z,0.98
2019-05-29T17:28:27.615Z,0.93
2019-05-29T17:33:31.202Z,0.80
2019-05-29T17:38:36.539Z,1.90
2019-05-29T17:43:41.793Z,1.02
2019-05-29T17:48:47.116Z,0.82
2019-05-29T17:53:52.384Z,0.90
2019-05-29T17:58:57.637Z,0.98
2019-05-29T18:04:02.901Z,0.90
2019-05-29T18:09:08.672Z,1.12
2019-05-29T18:14:14.045Z,0.90
2019-05-29T18:19:19.722Z,1.00
2019-05-29T18:24:26.059Z,1.10
2019-05-29T18:29:32.370Z,1.10
2019-05-29T18:34:37.935Z,1.00
2019-05-29T18:39:44.276Z,0.98
2019-05-29T18:44:49.810Z,1.37
2019-05-29T18:49:55.437Z,1.10
2019-05-29T18:55:01.008Z,1.17
2019-05-29T19:00:07.667Z,1.10
2019-05-29T19:05:13.453Z,1.20
2019-05-29T19:10:20.010Z,1.50
2019-05-29T19:15:25.967Z,1.32
2019-05-29T19:20:32.536Z,1.10
2019-05-29T19:25:37.826Z,1.20
2019-05-29T19:30:43.112Z,1.25
2019-05-29T19:35:48.399Z,1.10
2019-05-29T19:40:54.018Z,1.17
2019-05-29T19:45:59.369Z,1.10
2019-05-29T19:51:05.009Z,1.30
2019-05-29T19:56:10.645Z,1.40
2019-05-29T20:01:30.053Z,1.32
2019-05-29T20:06:22.926Z,1.30
2019-05-29T20:11:29.329Z,1.55
2019-05-29T20:16:36.227Z,1.70
2019-05-29T20:21:41.562Z,1.50
2019-05-29T20:26:46.812Z,1.50
2019-05-29T20:31:52.492Z,1.75
2019-05-29T20:36:58.219Z,1.90
2019-05-29T20:42:03.855Z,2.02
2019-05-29T20:47:09.120Z,2.10
2019-05-29T20:52:15.443Z,1.95
2019-05-29T20:57:21.089Z,1.55
2019-05-29T21:02:26.679Z,1.62
2019-05-29T21:07:32.551Z,1.87
2019-05-29T21:12:41.951Z,1.80
2019-05-29T21:17:44.825Z,1.65
2019-05-29T21:22:50.100Z,1.98
2019-05-29T21:27:56.211Z,2.00
2019-05-29T21:33:01.558Z,4.17
2019-05-29T21:38:06.797Z,4.53
2019-05-29T21:43:12.059Z,4.37
2019-05-29T21:48:17.460Z,4.00
2019-05-29T21:53:23.115Z,5.53
2019-05-29T21:58:28.480Z,4.55
2019-05-29T22:03:34.437Z,2.60
2019-05-29T22:08:40.613Z,2.60
2019-05-29T22:13:46.419Z,2.15
2019-05-29T22:18:52.907Z,2.30
2019-05-29T22:23:59.189Z,2.80
2019-05-29T22:29:17.445Z,2.60
2019-05-29T22:34:12.791Z,2.35
2019-05-29T22:39:18.351Z,2.53
2019-05-29T22:44:29.658Z,2.50
2019-05-29T22:49:34.976Z,2.25
2019-05-29T22:54:43.761Z,2.22
2019-05-29T22:59:49.392Z,2.40
2019-05-29T23:04:56.219Z,2.50
2019-05-29T23:10:02.677Z,2.67
2019-05-29T23:15:09.681Z,3.03
2019-05-29T23:20:16.620Z,2.67
2019-05-29T23:25:23.084Z,2.90
2019-05-29T23:30:30.645Z,2.60
2019-05-29T23:35:36.169Z,2.70
2019-05-29T23:40:42.451Z,2.60
2019-05-29T23:45:47.929Z,2.55
2019-05-29T23:50:53.495Z,2.50
2019-05-29T23:56:00.094Z,2.83
